Time;durP1;ratioP1;P1;durP2;ratioP2;P2;SDS_P1;SDS_P2;PMS_P1;PMS_P2;Temp;Humidity;BMP_temperature;BMP_pressure;BME280_temperature;BME280_humidity;BME280_pressure;Samples;Min_cycle;Max_cycle;Signal;HPM_P1;HPM_P2
2022/02/07 00:01:02;;;;;;;;;2.00;0.25;;;;;11.30;61.80;101194.69;5029426;28;45379;-48
2022/02/07 00:06:09;;;;;;;;;4.00;2.00;;;;;11.26;61.90;101200.84;5029762;28;45339;-50
2022/02/07 00:08:35;;;;;;;;;3.75;1.00;;;;;11.25;61.59;101231.53;5054388;28;45386;-49
2022/02/07 00:11:01;;;;;;;;;0.75;0.75;;;;;11.22;61.53;101226.31;5040856;28;45309;-50
2022/02/07 00:13:26;;;;;;;;;1.50;0.75;;;;;11.20;61.34;101239.47;5042955;28;45462;-49
2022/02/07 00:15:51;;;;;;;;;2.00;1.75;;;;;11.19;61.46;101264.06;5061045;28;46412;-49
2022/02/07 00:18:17;;;;;;;;;2.25;1.25;;;;;11.18;61.52;101254.41;5059545;28;45842;-47
2022/02/07 00:20:43;;;;;;;;;3.00;2.00;;;;;11.16;61.47;101268.47;5061248;28;45298;-48
2022/02/07 00:23:08;;;;;;;;;2.00;1.00;;;;;11.14;61.24;101259.69;5057129;28;45250;-50
2022/02/07 00:25:34;;;;;;;;;2.75;1.00;;;;;11.13;60.86;101271.09;5060576;28;46341;-46
2022/02/07 00:28:00;;;;;;;;;2.00;0.00;;;;;11.09;60.88;101265.00;5045489;28;45406;-51
2022/02/07 00:30:25;;;;;;;;;2.25;1.00;;;;;11.04;61.00;101270.31;5040709;28;45530;-51
2022/02/07 00:32:51;;;;;;;;;1.00;0.50;;;;;10.98;60.93;101291.41;5041044;28;45424;-50
2022/02/07 00:35:19;;;;;;;;;1.50;1.00;;;;;10.99;60.66;101289.63;5051706;28;45469;-48
2022/02/07 00:37:46;;;;;;;;;2.00;1.00;;;;;10.95;60.86;101286.13;5061076;28;45313;-49
2022/02/07 00:48:02;;;;;;;;;4.00;1.25;;;;;10.89;60.41;101309.84;5060596;28;45222;-47
2022/02/07 00:50:28;;;;;;;;;4.25;2.00;;;;;10.86;60.49;101309.88;5060751;28;45381;-47
2022/02/07 00:52:54;;;;;;;;;4.25;2.00;;;;;10.85;60.51;101321.28;5060422;28;45321;-47
2022/02/07 00:55:19;;;;;;;;;4.00;1.50;;;;;10.85;60.41;101329.16;5060208;28;45327;-50
2022/02/07 00:57:44;;;;;;;;;4.00;3.50;;;;;10.83;60.47;101325.66;5060084;28;45335;-48
2022/02/07 01:00:10;;;;;;;;;4.00;2.00;;;;;10.83;60.30;101331.81;5060501;28;45311;-48
2022/02/07 01:02:36;;;;;;;;;5.25;3.00;;;;;10.83;60.32;101351.94;5059090;28;45445;-47
2022/02/07 01:05:02;;;;;;;;;6.50;2.50;;;;;10.85;60.30;101350.19;5058835;28;46905;-46
2022/02/07 01:07:29;;;;;;;;;3.00;1.00;;;;;10.82;60.52;101361.59;5059125;28;45306;-50
2022/02/07 01:09:55;;;;;;;;;3.50;1.50;;;;;10.83;60.06;101372.97;5054095;28;45384;-47
2022/02/07 01:14:56;;;;;;;;;4.00;1.00;;;;;10.79;60.08;101376.50;5039684;28;45433;-46
2022/02/07 01:53:03;;;;;;;;;0.25;0.00;;;;;10.29;58.58;101508.03;5039865;28;45299;-48
2022/02/07 01:57:56;;;;;;;;;2.50;1.25;;;;;10.22;58.28;101522.91;5039442;28;45267;-46
2022/02/07 02:00:22;;;;;;;;;1.75;0.50;;;;;10.19;58.03;101535.19;5039517;28;45368;-48
2022/02/07 02:02:48;;;;;;;;;2.00;2.00;;;;;10.15;58.33;101534.31;5039866;28;45484;-46
2022/02/07 02:05:14;;;;;;;;;2.00;1.00;;;;;10.13;58.07;101537.81;5039406;28;45474;-47
2022/02/07 02:07:40;;;;;;;;;1.50;1.50;;;;;10.07;58.18;101544.81;5038215;28;45962;-46
2022/02/07 02:10:06;;;;;;;;;4.00;3.00;;;;;10.07;58.11;101549.19;5038898;28;45252;-49
2022/02/07 02:12:36;;;;;;;;;1.25;1.00;;;;;10.05;57.95;101564.03;5039638;28;45278;-48
2022/02/07 02:15:08;;;;;;;;;1.00;1.00;;;;;10.03;57.96;101557.94;5039140;28;45515;-47
2022/02/07 02:38:48;;;;;;;;;1.00;1.00;;;;;9.80;57.90;101620.88;5039171;28;45311;-47
2022/02/07 02:46:41;;;;;;;;;3.25;1.50;;;;;9.72;57.48;101633.97;5042604;28;45319;-47
2022/02/07 02:49:07;;;;;;;;;1.50;1.00;;;;;9.67;57.53;101649.75;5042320;28;46113;-49
2022/02/07 02:51:33;;;;;;;;;0.00;0.00;;;;;9.66;57.31;101649.72;5042436;28;45398;-48
2022/02/07 02:53:58;;;;;;;;;3.00;1.00;;;;;9.64;57.20;101667.22;5042427;28;45379;-49
2022/02/07 02:56:24;;;;;;;;;2.00;1.00;;;;;9.63;57.54;101676.81;5042086;28;45236;-47
2022/02/07 02:58:49;;;;;;;;;2.00;2.00;;;;;9.60;57.31;101671.56;5040914;28;47339;-46
2022/02/07 03:01:15;;;;;;;;;1.00;1.00;;;;;9.62;57.58;101672.44;5042277;28;45312;-46
2022/02/07 03:03:40;;;;;;;;;1.00;1.00;;;;;9.59;57.44;101669.81;5042593;28;45244;-47
2022/02/07 03:06:05;;;;;;;;;2.25;0.75;;;;;9.58;57.54;101673.28;5042226;28;45441;-46
2022/02/07 03:08:31;;;;;;;;;6.00;1.00;;;;;9.56;57.41;101681.16;5042068;28;46581;-49
2022/02/07 03:11:15;;;;;;;;;0.75;0.00;;;;;9.53;57.26;101683.75;5041757;28;45455;-46
2022/02/07 03:13:55;;;;;;;;;2.00;1.00;;;;;9.51;57.17;101671.50;5042527;28;45345;-46
2022/02/07 03:16:38;;;;;;;;;1.25;0.00;;;;;9.50;57.04;101675.03;5041910;28;45475;-46
2022/02/07 03:19:15;;;;;;;;;2.50;1.00;;;;;9.48;57.18;101682.88;5041967;28;45985;-47
2022/02/07 03:21:41;;;;;;;;;2.25;1.00;;;;;9.46;57.37;101692.50;5041645;28;45354;-47
2022/02/07 03:24:08;;;;;;;;;2.00;1.00;;;;;9.45;57.17;101695.97;5041900;28;45370;-48
2022/02/07 03:26:43;;;;;;;;;3.25;1.00;;;;;9.44;57.32;101695.09;5040229;28;45351;-51
2022/02/07 03:29:09;;;;;;;;;3.00;1.75;;;;;9.43;57.05;101709.09;5040327;28;47213;-47
2022/02/07 03:31:35;;;;;;;;;1.00;1.00;;;;;9.41;57.28;101716.06;5041742;28;45354;-47
2022/02/07 03:34:01;;;;;;;;;2.50;0.75;;;;;9.39;57.19;101716.94;5041660;28;45257;-45
2022/02/07 03:36:31;;;;;;;;;3.25;0.50;;;;;9.37;56.99;101726.53;5041913;28;45150;-47
2022/02/07 03:38:57;;;;;;;;;3.75;1.50;;;;;9.36;57.17;101719.56;5040171;28;46103;-50
2022/02/07 03:41:22;;;;;;;;;1.00;1.00;;;;;9.33;57.25;101738.75;5040138;28;45825;-48
2022/02/07 03:43:48;;;;;;;;;0.00;0.00;;;;;9.32;57.18;101747.50;5041637;28;45376;-48
2022/02/07 03:46:13;;;;;;;;;5.00;2.00;;;;;9.32;57.16;101749.22;5041710;28;45333;-49
2022/02/07 03:48:38;;;;;;;;;5.25;1.25;;;;;9.32;56.47;101754.47;5041446;28;45483;-49
2022/02/07 03:51:04;;;;;;;;;2.50;1.50;;;;;9.29;56.87;101755.34;5041546;28;45431;-47
2022/02/07 03:53:30;;;;;;;;;3.25;3.00;;;;;9.27;57.25;101762.34;5040762;28;45240;-49
2022/02/07 03:55:55;;;;;;;;;2.50;1.00;;;;;9.26;57.13;101764.06;5041075;28;45453;-45
2022/02/07 03:58:21;;;;;;;;;3.50;2.00;;;;;9.25;56.93;101771.91;5041504;28;45431;-46
2022/02/07 04:00:53;;;;;;;;;2.75;2.00;;;;;9.27;56.99;101767.56;5041325;28;45434;-46
2022/02/07 04:03:22;;;;;;;;;3.00;2.00;;;;;9.27;57.15;101780.69;5041378;28;45405;-45
2022/02/07 04:05:53;;;;;;;;;2.00;1.00;;;;;9.26;57.09;101784.19;5041362;28;45438;-47
2022/02/07 04:08:20;;;;;;;;;2.50;1.50;;;;;9.23;57.06;101785.03;5040930;28;45374;-45
2022/02/07 04:13:24;;;;;;;;;2.00;2.00;;;;;9.20;57.24;101790.22;5041163;28;45324;-46
2022/02/07 04:15:51;;;;;;;;;3.25;2.00;;;;;9.19;57.19;101798.09;5040964;28;45184;-46
2022/02/07 04:18:16;;;;;;;;;4.50;1.00;;;;;9.19;57.09;101804.22;5039535;28;46159;-47
2022/02/07 04:20:42;;;;;;;;;3.25;2.00;;;;;9.18;56.97;101818.22;5040840;28;45272;-47
2022/02/07 04:23:07;;;;;;;;;2.00;1.00;;;;;9.18;57.13;101828.72;5041074;28;45570;-48
2022/02/07 04:25:33;;;;;;;;;3.25;2.00;;;;;9.17;56.97;101836.53;5040805;28;45333;-46
2022/02/07 04:27:59;;;;;;;;;1.00;1.00;;;;;9.14;57.13;101826.91;5040848;28;46315;-46
2022/02/07 04:30:24;;;;;;;;;2.00;1.00;;;;;9.08;57.24;101825.13;5039715;28;45482;-46
2022/02/07 04:32:50;;;;;;;;;1.75;1.75;;;;;9.13;57.03;101832.13;5040901;28;45546;-47
2022/02/07 04:35:15;;;;;;;;;3.25;1.00;;;;;9.13;57.08;101846.13;5041059;28;45291;-50
2022/02/07 04:37:41;;;;;;;;;2.75;2.00;;;;;9.13;57.28;101842.63;5040682;28;46406;-50
2022/02/07 04:40:07;;;;;;;;;3.00;1.00;;;;;9.09;57.27;101860.06;5040432;28;45264;-45
2022/02/07 04:42:32;;;;;;;;;4.50;2.75;;;;;9.09;57.03;101857.44;5039509;28;45320;-46
2022/02/07 04:50:23;;;;;;;;;3.75;1.50;;;;;9.01;57.51;101867.88;5040466;28;45248;-49
2022/02/07 04:55:44;;;;;;;;;2.00;1.50;;;;;9.03;57.31;101874.00;5039972;28;45381;-45
2022/02/07 04:58:26;;;;;;;;;3.00;0.25;;;;;9.05;57.22;101871.41;5039094;28;46231;-47
2022/02/07 05:01:13;;;;;;;;;6.75;3.00;;;;;9.01;56.99;101878.34;5040458;28;45524;-47
2022/02/07 05:03:47;;;;;;;;;3.25;2.00;;;;;9.02;57.14;101876.59;5040435;28;45293;-46
2022/02/07 05:14:25;;;;;;;;;1.00;1.00;;;;;8.95;57.04;101901.88;5040401;28;45221;-49
2022/02/07 05:16:53;;;;;;;;;6.75;1.50;;;;;8.94;57.25;101902.75;5039969;28;45244;-47
2022/02/07 05:19:18;;;;;;;;;3.50;1.50;;;;;8.91;56.94;101902.72;5039888;28;46134;-49
2022/02/07 05:21:44;;;;;;;;;2.00;1.00;;;;;8.91;57.08;101923.69;5039915;28;45325;-50
2022/02/07 05:24:10;;;;;;;;;2.75;2.00;;;;;8.90;57.36;101927.16;5040123;28;45429;-49
2022/02/07 05:26:35;;;;;;;;;4.00;2.00;;;;;8.90;57.31;101927.16;5039883;28;45443;-48
2022/02/07 05:29:02;;;;;;;;;2.50;2.00;;;;;8.88;57.34;101937.66;5039992;28;45291;-49
2022/02/07 05:31:28;;;;;;;;;3.25;2.00;;;;;8.88;57.06;101939.38;5038822;28;45283;-48
2022/02/07 05:33:53;;;;;;;;;6.00;2.00;;;;;8.86;57.31;101941.09;5040064;28;45217;-49
2022/02/07 05:36:20;;;;;;;;;7.25;3.75;;;;;8.84;57.04;101948.06;5040200;28;45231;-49
2022/02/07 05:38:49;;;;;;;;;6.00;2.75;;;;;8.82;57.22;101940.19;5039810;28;46102;-50
2022/02/07 05:41:16;;;;;;;;;3.50;1.25;;;;;8.83;57.35;101947.19;5039463;28;45370;-50
2022/02/07 05:43:46;;;;;;;;;2.50;1.00;;;;;8.83;57.28;101954.16;5039883;28;45457;-48
2022/02/07 05:46:13;;;;;;;;;6.00;2.25;;;;;8.82;57.17;101963.78;5040036;28;45309;-49
2022/02/07 05:48:38;;;;;;;;;2.50;2.00;;;;;8.81;57.22;101976.88;5039531;28;46050;-50
2022/02/07 05:51:04;;;;;;;;;4.25;2.25;;;;;8.80;57.33;101982.97;5039689;28;45251;-50
2022/02/07 05:53:29;;;;;;;;;5.25;1.50;;;;;8.78;57.27;101986.44;5039860;28;45382;-48
2022/02/07 05:55:55;;;;;;;;;3.25;1.25;;;;;8.78;57.12;101985.59;5021417;28;45336;-47
2022/02/07 05:58:20;;;;;;;;;6.00;3.00;;;;;8.78;57.33;101988.19;5039527;28;45984;-51
2022/02/07 06:00:46;;;;;;;;;3.00;1.75;;;;;8.78;57.06;101999.56;5039790;28;45290;-49
2022/02/07 06:03:11;;;;;;;;;3.25;2.00;;;;;8.74;57.15;101995.13;5038633;28;45300;-47
2022/02/07 06:05:37;;;;;;;;;3.00;1.50;;;;;8.73;57.25;102001.22;5039666;28;45360;-48
2022/02/07 06:08:03;;;;;;;;;6.50;2.00;;;;;8.71;57.27;102010.81;5039496;28;46095;-45
2022/02/07 06:10:28;;;;;;;;;5.50;3.00;;;;;8.72;57.18;102006.47;5039095;28;45581;-49
2022/02/07 06:12:54;;;;;;;;;4.75;2.75;;;;;8.73;57.15;102014.34;5039329;28;45182;-49
2022/02/07 06:15:19;;;;;;;;;3.00;3.00;;;;;8.72;57.18;102014.31;5038181;28;45305;-50
2022/02/07 06:17:53;;;;;;;;;5.00;2.75;;;;;8.74;57.35;102017.81;5041609;28;45254;-46
2022/02/07 06:20:18;;;;;;;;;6.50;2.50;;;;;8.74;57.32;102023.97;5042954;28;45464;-50
2022/02/07 06:22:45;;;;;;;;;3.75;2.50;;;;;8.72;57.37;102028.28;5042682;28;45519;-52
2022/02/07 06:25:11;;;;;;;;;4.25;1.75;;;;;8.71;57.17;102029.16;5042511;28;45312;-52
2022/02/07 06:27:36;;;;;;;;;5.50;2.00;;;;;8.71;57.20;102034.41;5042377;28;45365;-44
2022/02/07 06:30:02;;;;;;;;;5.50;2.50;;;;;8.70;57.43;102034.38;5043024;28;45360;-46
2022/02/07 06:32:28;;;;;;;;;4.75;2.25;;;;;8.72;57.15;102037.91;5042752;28;45339;-47
2022/02/07 06:34:53;;;;;;;;;6.25;2.25;;;;;8.72;57.11;102056.25;5042725;28;45374;-43
2022/02/07 06:37:18;;;;;;;;;3.00;2.00;;;;;8.73;57.38;102055.38;5042100;28;45561;-41
2022/02/07 06:39:44;;;;;;;;;7.00;4.00;;;;;8.73;57.00;102051.03;5042282;28;45370;-39
2022/02/07 06:42:09;;;;;;;;;6.00;2.50;;;;;8.72;57.21;102048.41;5042672;28;45696;-39
2022/02/07 06:44:35;;;;;;;;;3.25;2.00;;;;;8.73;57.15;102048.41;5042601;28;45311;-41
2022/02/07 06:47:00;;;;;;;;;3.75;3.00;;;;;8.71;57.29;102051.88;5042281;28;46112;-39
2022/02/07 06:49:25;;;;;;;;;2.50;1.00;;;;;8.66;57.26;102059.66;5041038;28;45661;-41
2022/02/07 06:51:51;;;;;;;;;3.00;2.50;;;;;8.71;57.46;102073.69;5037162;28;45576;-41
2022/02/07 06:54:16;;;;;;;;;5.25;1.50;;;;;8.71;57.29;102075.47;5042300;28;45350;-41
2022/02/07 06:56:43;;;;;;;;;6.00;3.00;;;;;8.73;57.33;102078.97;5046765;28;45236;-42
2022/02/07 06:59:08;;;;;;;;;2.50;1.00;;;;;8.73;57.36;102092.06;5041542;28;45500;-42
2022/02/07 07:01:34;;;;;;;;;3.00;2.50;;;;;8.71;57.28;102089.44;5046786;28;45244;-41
2022/02/07 07:03:59;;;;;;;;;6.00;3.00;;;;;8.71;57.44;102089.44;5061922;28;45324;-41
2022/02/07 07:06:25;;;;;;;;;6.00;3.00;;;;;8.73;57.33;102095.59;5062206;28;45296;-42
2022/02/07 07:08:54;;;;;;;;;10.50;3.00;;;;;8.73;57.21;102102.56;5047206;28;45360;-39
2022/02/07 07:11:26;;;;;;;;;3.25;2.25;;;;;8.71;57.08;102096.44;5041390;28;45447;-39
2022/02/07 07:14:12;;;;;;;;;6.25;4.25;;;;;8.71;57.28;102091.19;5041806;28;45532;-40
2022/02/07 07:16:50;;;;;;;;;6.50;3.00;;;;;8.75;57.55;102112.22;5041495;28;46223;-44
2022/02/07 07:19:16;;;;;;;;;6.75;5.50;;;;;8.74;57.16;102099.97;5041742;28;45313;-42
2022/02/07 07:21:41;;;;;;;;;5.50;2.00;;;;;8.75;57.32;102106.09;5040944;28;45318;-45
2022/02/07 07:24:06;;;;;;;;;4.25;1.50;;;;;8.75;57.55;102119.19;5025460;28;45230;-41
2022/02/07 07:26:32;;;;;;;;;4.75;3.50;;;;;8.75;57.28;102121.81;5040263;28;46173;-40
2022/02/07 07:28:58;;;;;;;;;3.00;2.00;;;;;8.75;57.33;102129.69;5039131;28;45285;-40
2022/02/07 07:31:26;;;;;;;;;4.00;4.00;;;;;8.77;57.34;102143.69;5041608;28;45335;-40
2022/02/07 07:33:53;;;;;;;;;3.00;3.00;;;;;8.75;57.47;102151.53;5041177;28;45330;-40
2022/02/07 07:36:19;;;;;;;;;3.50;3.50;;;;;8.77;57.63;102157.69;5040333;28;48177;-41
2022/02/07 07:38:45;;;;;;;;;9.50;6.75;;;;;8.77;57.52;102157.69;5041458;28;45403;-40
2022/02/07 07:41:11;;;;;;;;;4.00;3.00;;;;;8.77;57.49;102162.91;5041444;28;45431;-40
2022/02/07 07:43:37;;;;;;;;;13.25;3.00;;;;;8.78;57.34;102169.94;5056651;28;45387;-40
2022/02/07 07:46:05;;;;;;;;;4.75;3.50;;;;;8.78;57.62;102180.41;5061614;28;46021;-41
2022/02/07 07:48:33;;;;;;;;;6.75;5.25;;;;;8.80;57.47;102190.06;5061650;27;45170;-41
2022/02/07 07:51:20;;;;;;;;;3.25;3.25;;;;;8.80;57.47;102201.41;5061750;28;45388;-45
2022/02/07 07:54:10;;;;;;;;;6.75;4.00;;;;;8.81;57.26;102200.56;5039918;28;45323;-40
2022/02/07 08:02:06;;;;;;;;;8.25;5.00;;;;;8.81;57.51;102226.78;5030674;28;45357;-41
2022/02/07 08:04:34;;;;;;;;;14.00;8.50;;;;;8.83;57.50;102239.91;5041038;28;45651;-41
2022/02/07 08:12:28;;;;;;;;;5.50;4.00;;;;;8.84;57.62;102234.69;5041197;28;45421;-41
2022/02/07 08:14:55;;;;;;;;;13.25;7.75;;;;;8.85;57.70;102243.44;5041040;28;45315;-41
2022/02/07 08:17:22;;;;;;;;;10.00;9.25;;;;;8.84;57.77;102263.53;5040950;28;47164;-41
2022/02/07 08:19:51;;;;;;;;;5.50;5.50;;;;;8.84;57.84;102263.53;5041024;28;45379;-41
2022/02/07 08:22:17;;;;;;;;;11.25;7.00;;;;;8.85;57.80;102265.28;5041147;28;45410;-40
2022/02/07 08:24:43;;;;;;;;;8.50;5.00;;;;;8.87;57.80;102273.19;5039395;28;45521;-40
2022/02/07 08:27:09;;;;;;;;;11.25;7.50;;;;;8.88;57.86;102265.34;5039439;28;46791;-41
2022/02/07 08:29:35;;;;;;;;;10.00;7.50;;;;;8.92;57.70;102269.78;5040902;28;45362;-41
2022/02/07 08:32:00;;;;;;;;;11.75;7.00;;;;;8.94;57.58;102278.56;5039568;28;45347;-41
2022/02/07 08:34:26;;;;;;;;;11.50;6.75;;;;;8.93;57.69;102278.50;5040929;28;45324;-41
2022/02/07 08:36:52;;;;;;;;;11.25;9.75;;;;;8.99;57.79;102283.88;5040513;28;46106;-41
2022/02/07 08:39:18;;;;;;;;;8.25;8.00;;;;;9.03;57.78;102303.16;5040176;28;45544;-41
2022/02/07 08:41:43;;;;;;;;;14.50;7.50;;;;;9.03;58.02;102304.06;5040920;28;45451;-40
2022/02/07 08:44:08;;;;;;;;;12.50;10.75;;;;;9.09;57.88;102301.53;5040642;28;45496;-43
2022/02/07 08:46:34;;;;;;;;;12.25;11.75;;;;;9.10;57.58;102308.53;5040699;28;45288;-41
2022/02/07 08:49:00;;;;;;;;;10.00;7.75;;;;;9.15;57.99;102313.88;5040793;28;45291;-41
2022/02/07 08:51:30;;;;;;;;;6.75;6.50;;;;;9.20;57.69;102320.06;5040395;28;45242;-40
2022/02/07 08:53:55;;;;;;;;;12.00;8.00;;;;;9.23;58.06;102306.13;5040466;28;45347;-41
2022/02/07 08:56:30;;;;;;;;;8.50;4.25;;;;;9.29;58.11;102310.59;5038614;28;46535;-41
2022/02/07 08:58:56;;;;;;;;;10.50;8.75;;;;;9.32;57.91;102322.03;5040616;28;45322;-41
2022/02/07 09:01:27;;;;;;;;;13.25;7.50;;;;;9.35;57.94;102324.69;5040473;28;45376;-41
2022/02/07 09:09:08;;;;;;;;;12.00;7.50;;;;;9.49;57.81;102343.28;5040271;28;45494;-41
2022/02/07 09:11:34;;;;;;;;;7.75;3.25;;;;;9.52;57.91;102353.84;5040310;28;45221;-41
2022/02/07 09:14:08;;;;;;;;;5.25;5.00;;;;;9.58;58.13;102361.81;5038822;28;45695;-43
2022/02/07 09:16:33;;;;;;;;;8.00;4.25;;;;;9.63;58.05;102361.00;5040076;28;45408;-41
2022/02/07 09:19:00;;;;;;;;;8.00;7.00;;;;;9.68;57.99;102369.81;5039962;28;45276;-42
2022/02/07 09:21:28;;;;;;;;;6.00;2.75;;;;;9.73;58.08;102376.88;5040470;28;45274;-41
2022/02/07 09:23:54;;;;;;;;;10.00;7.25;;;;;9.79;57.94;102388.38;5039742;28;45272;-41
2022/02/07 09:26:20;;;;;;;;;13.50;6.25;;;;;9.86;58.13;102392.84;5039850;28;46266;-41
2022/02/07 09:28:46;;;;;;;;;10.00;7.00;;;;;9.92;58.17;102396.47;5039812;28;45349;-41
2022/02/07 09:31:13;;;;;;;;;8.25;6.75;;;;;10.01;58.13;102405.31;5040160;28;45259;-41
2022/02/07 09:33:41;;;;;;;;;5.25;4.50;;;;;10.08;57.88;102408.03;5039930;28;45466;-41
2022/02/07 09:36:07;;;;;;;;;9.75;6.50;;;;;10.13;58.06;102415.13;5038432;28;47927;-42
2022/02/07 09:38:33;;;;;;;;;19.25;15.75;;;;;10.20;57.97;102419.59;5039648;28;45299;-41
2022/02/07 09:40:59;;;;;;;;;8.00;6.00;;;;;10.25;58.08;102425.78;5039585;28;45322;-41
2022/02/07 09:43:30;;;;;;;;;9.25;6.00;;;;;10.34;57.88;102432.91;5038356;28;45346;-41
2022/02/07 09:46:05;;;;;;;;;13.75;6.75;;;;;10.42;57.85;102448.84;5039630;28;47249;-41
2022/02/07 09:48:32;;;;;;;;;8.50;5.50;;;;;10.50;57.89;102452.44;5039632;28;45255;-41
2022/02/07 09:50:58;;;;;;;;;7.25;5.25;;;;;10.56;57.87;102452.53;5038553;28;45252;-42
2022/02/07 09:53:25;;;;;;;;;6.25;5.25;;;;;10.63;58.16;102454.38;5042818;28;45323;-41
2022/02/07 09:55:51;;;;;;;;;5.25;4.50;;;;;10.73;58.04;102468.53;5042897;28;47049;-42
2022/02/07 09:58:16;;;;;;;;;7.50;7.50;;;;;10.80;57.96;102480.88;5043176;28;45424;-41
2022/02/07 10:00:42;;;;;;;;;6.00;5.00;;;;;10.89;58.10;102482.75;5043373;28;45261;-42
2022/02/07 10:03:27;;;;;;;;;9.75;6.00;;;;;10.97;57.99;102474.94;5043025;28;45331;-41
2022/02/07 10:21:42;;;;;;;;;5.00;4.25;;;;;11.63;57.78;102501.97;5042938;28;45255;-41
2022/02/07 10:40:43;;;;;;;;;4.25;3.50;;;;;12.15;57.70;102524.38;5042203;28;45444;-41
2022/02/07 10:43:16;;;;;;;;;4.75;2.50;;;;;12.21;57.50;102524.44;5042407;28;45278;-42
2022/02/07 10:46:01;;;;;;;;;4.25;2.50;;;;;12.30;57.66;102523.63;5042542;28;45513;-41
2022/02/07 10:48:54;;;;;;;;;3.50;3.00;;;;;12.36;57.38;102526.31;5040977;28;46129;-42
2022/02/07 10:51:25;;;;;;;;;9.00;4.50;;;;;12.43;57.38;102529.88;5042148;28;45215;-41
2022/02/07 10:54:04;;;;;;;;;7.00;3.75;;;;;12.48;57.59;102520.25;5042409;28;45364;-41
2022/02/07 10:56:42;;;;;;;;;8.00;4.75;;;;;12.55;57.34;102522.03;5042212;28;45239;-41
2022/02/07 10:59:10;;;;;;;;;4.00;3.00;;;;;12.61;57.10;102519.44;5042154;28;46348;-41
2022/02/07 11:04:39;;;;;;;;;4.00;4.00;;;;;12.75;57.10;102516.84;5042217;28;45291;-42
2022/02/07 11:07:05;;;;;;;;;3.75;3.75;;;;;12.82;57.30;102512.53;5042212;28;45307;-41
2022/02/07 11:20:51;;;;;;;;;2.00;2.00;;;;;13.13;56.83;102516.16;5025755;28;45409;-41
2022/02/07 11:23:46;;;;;;;;;3.75;2.75;;;;;13.20;56.31;102516.19;5042006;28;45327;-40
2022/02/07 11:26:39;;;;;;;;;4.50;2.00;;;;;13.23;56.10;102514.44;5041854;28;45284;-40
2022/02/07 11:29:05;;;;;;;;;4.75;2.00;;;;;13.24;55.94;102504.75;5041844;28;45363;-40
2022/02/07 11:31:40;;;;;;;;;3.50;1.75;;;;;13.25;55.54;102502.09;5041684;28;45410;-41
2022/02/07 11:34:11;;;;;;;;;6.25;4.00;;;;;13.29;56.22;102519.72;5041735;28;45385;-40
2022/02/07 11:36:38;;;;;;;;;6.00;5.75;;;;;13.32;55.63;102532.94;5041948;28;45227;-40
2022/02/07 11:39:11;;;;;;;;;6.00;2.00;;;;;13.37;55.89;102524.13;5041356;28;45549;-40
2022/02/07 11:41:55;;;;;;;;;4.25;2.75;;;;;13.41;55.50;102524.19;5041546;28;46330;-40
2022/02/07 11:44:26;;;;;;;;;6.25;4.00;;;;;13.47;55.87;102523.31;5040123;28;45288;-40
2022/02/07 11:47:14;;;;;;;;;4.00;4.00;;;;;13.55;55.39;102523.34;5041793;28;45307;-40
2022/02/07 11:49:41;;;;;;;;;6.25;2.50;;;;;13.62;55.62;102526.00;5041402;28;45411;-40
2022/02/07 11:52:46;;;;;;;;;8.00;5.25;;;;;13.68;55.18;102519.81;5041312;28;46388;-41
2022/02/07 11:55:22;;;;;;;;;4.00;2.75;;;;;13.75;55.29;102518.97;5018825;28;45342;-40
2022/02/07 11:58:20;;;;;;;;;4.50;2.25;;;;;13.80;54.96;102529.53;5036057;28;45354;-40
2022/02/07 12:00:46;;;;;;;;;4.25;3.00;;;;;13.83;54.75;102524.25;5041100;28;45223;-40
2022/02/07 12:03:14;;;;;;;;;4.00;2.25;;;;;13.91;55.18;102538.34;5039940;28;46320;-40
2022/02/07 12:05:46;;;;;;;;;2.75;2.00;;;;;13.99;55.15;102538.34;5041265;28;45364;-40
2022/02/07 12:08:19;;;;;;;;;1.00;1.00;;;;;14.09;54.62;102536.59;5041454;28;45426;-40
2022/02/07 12:11:11;;;;;;;;;3.00;3.00;;;;;14.18;54.90;102544.50;5040703;28;45256;-40
2022/02/07 12:13:39;;;;;;;;;5.50;1.00;;;;;14.30;55.09;102546.25;5039718;28;47581;-41
2022/02/07 12:16:14;;;;;;;;;3.00;3.00;;;;;14.42;54.74;102534.78;5039102;28;45352;-41
2022/02/07 12:18:39;;;;;;;;;5.25;3.00;;;;;14.53;54.79;102540.94;5041241;28;45339;-40
2022/02/07 12:21:22;;;;;;;;;3.75;3.50;;;;;14.61;54.60;102541.78;5040983;28;45424;-40
2022/02/07 12:23:49;;;;;;;;;5.00;3.75;;;;;14.69;54.92;102541.81;5039638;28;47196;-40
2022/02/07 12:26:17;;;;;;;;;2.50;2.50;;;;;14.79;54.73;102540.91;5040751;28;45314;-41
2022/02/07 12:31:20;;;;;;;;;4.00;3.25;;;;;14.97;54.38;102539.09;5041037;28;45292;-40
2022/02/07 12:34:15;;;;;;;;;3.00;2.00;;;;;15.04;54.67;102535.53;5040556;28;46129;-40
2022/02/07 12:36:41;;;;;;;;;3.00;1.00;;;;;15.14;54.65;102527.53;5031697;28;45514;-42
2022/02/07 12:39:15;;;;;;;;;5.25;2.25;;;;;15.21;54.53;102531.91;5040587;28;45133;-41
2022/02/07 12:41:42;;;;;;;;;2.50;1.00;;;;;15.31;54.43;102538.03;5040763;28;45331;-40
2022/02/07 12:44:09;;;;;;;;;2.25;1.25;;;;;15.35;54.38;102537.13;5040519;28;46476;-40
2022/02/07 12:46:39;;;;;;;;;5.75;3.25;;;;;15.40;54.20;102533.56;5039190;28;45335;-44
2022/02/07 12:49:10;;;;;;;;;2.50;2.50;;;;;15.46;53.93;102521.16;5040916;28;45246;-40
2022/02/07 12:51:42;;;;;;;;;5.25;2.50;;;;;15.50;54.26;102523.78;5038994;28;45272;-41
2022/02/07 12:54:13;;;;;;;;;3.75;1.25;;;;;15.55;53.66;102524.63;5038870;28;45737;-41
2022/02/07 12:56:39;;;;;;;;;1.00;0.50;;;;;15.57;53.47;102525.53;5040324;28;45244;-42
2022/02/07 12:59:05;;;;;;;;;3.25;0.50;;;;;15.58;53.83;102527.28;5040624;28;45283;-41
2022/02/07 13:01:35;;;;;;;;;3.75;1.50;;;;;15.65;53.35;102524.59;5040152;28;45462;-41
2022/02/07 13:04:06;;;;;;;;;1.25;1.25;;;;;15.69;53.52;102521.88;5040564;28;46127;-41
2022/02/07 13:06:43;;;;;;;;;3.75;1.00;;;;;15.72;53.48;102513.03;5040044;28;45220;-41
2022/02/07 13:09:17;;;;;;;;;3.00;2.00;;;;;15.75;53.17;102507.72;5040115;28;45259;-41
2022/02/07 13:11:48;;;;;;;;;3.00;1.75;;;;;15.82;53.31;102525.34;5029465;28;45471;-41
2022/02/07 13:14:18;;;;;;;;;4.67;2.00;;;;;15.87;52.95;102518.28;5039967;28;46243;-41
2022/02/07 13:16:45;;;;;;;;;4.75;2.00;;;;;15.91;53.29;102525.28;5040096;28;45372;-41
2022/02/07 13:19:21;;;;;;;;;1.33;1.00;;;;;15.95;52.81;102525.25;5040149;28;45364;-41
2022/02/07 13:21:53;;;;;;;;;4.50;3.00;;;;;16.01;53.16;102527.84;5040172;28;45268;-41
2022/02/07 13:24:23;;;;;;;;;2.50;2.50;;;;;16.04;52.88;102531.38;5039509;28;46315;-41
2022/02/07 13:26:51;;;;;;;;;3.75;1.75;;;;;16.06;52.84;102529.59;5038851;28;45213;-41
2022/02/07 13:29:23;;;;;;;;;3.00;1.50;;;;;16.07;53.08;102522.50;5040121;28;45410;-41
2022/02/07 13:32:02;;;;;;;;;1.75;1.00;;;;;16.08;52.96;102529.56;5040074;28;45360;-41
2022/02/07 13:34:29;;;;;;;;;40.00;33.50;;;;;16.05;52.85;102538.44;5038474;28;47210;-42
2022/02/07 13:37:16;;;;;;;;;3.75;3.00;;;;;16.05;52.79;102535.78;5039864;28;45313;-41
2022/02/07 13:39:51;;;;;;;;;1.25;0.75;;;;;16.05;52.75;102529.59;5038214;28;45358;-41
2022/02/07 13:42:16;;;;;;;;;7.00;5.75;;;;;16.07;52.57;102549.03;5039706;28;45331;-41
2022/02/07 13:44:43;;;;;;;;;8.00;1.75;;;;;16.08;52.85;102529.56;5038323;28;47166;-41
2022/02/07 13:47:10;;;;;;;;;6.50;2.50;;;;;16.11;52.71;102536.63;5033430;28;45244;-41
2022/02/07 13:49:59;;;;;;;;;2.75;2.00;;;;;16.16;52.80;102542.75;5059948;28;45411;-41
2022/02/07 13:52:33;;;;;;;;;1.75;1.75;;;;;16.18;52.61;102543.63;5049086;28;45256;-41
2022/02/07 13:55:28;;;;;;;;;4.50;3.75;;;;;16.20;52.89;102537.41;5039083;28;46248;-41
2022/02/07 13:58:29;;;;;;;;;5.50;4.50;;;;;16.25;52.91;102537.34;5039548;28;45321;-41
2022/02/07 14:00:58;;;;;;;;;4.50;1.75;;;;;16.28;52.75;102534.69;5026166;28;45220;-41
2022/02/07 14:03:40;;;;;;;;;2.00;2.00;;;;;16.30;52.70;102532.03;5039530;28;45307;-41
2022/02/07 14:06:07;;;;;;;;;4.00;4.00;;;;;16.32;52.70;102544.38;5039400;28;47021;-41
2022/02/07 14:08:38;;;;;;;;;7.00;6.00;;;;;16.36;52.55;102540.81;5039553;28;45333;-41
2022/02/07 14:11:18;;;;;;;;;3.00;3.00;;;;;16.42;52.65;102545.16;5039128;28;45271;-41
2022/02/07 14:13:45;;;;;;;;;7.00;3.00;;;;;16.49;52.88;102538.00;5039366;28;45272;-41
2022/02/07 14:16:11;;;;;;;;;3.25;3.25;;;;;16.54;52.56;102534.44;5038989;28;45396;-40
2022/02/07 14:18:38;;;;;;;;;3.00;3.00;;;;;16.64;52.85;102534.31;5039509;28;45287;-40
2022/02/07 14:21:10;;;;;;;;;5.50;3.00;;;;;16.71;52.79;102533.34;5039351;28;45142;-40